Current Weather

Shoreham

Shoreham, United Kingdom (EGKA)

Report from: Sunday, September 25, 2022 6:50 PM BST
Current time: Monday, September 26, 2022 3:26 AM BST

Nearby weather
Weather history
Weather forecast

Temperature12.0°C (53.6°F)
Dew point7.0°C (44.6°F)
Winds 4 kts (2.1 m/s, 4.6 mph) West (270°)
Clouds Sky clear
Altimeter30.00 in.Hg (1016 mB)
Relative humidity71 %
Density altitude-306 ft. (-93 m)
Remarks Ceiling and visibility OK
Flight conditions Visual Meteorological Conditions
Raw dataEGKA 251750Z 27004KT CAVOK 12/07 Q1016
An error has occurred. This application may no longer respond until reloaded. Reload 🗙